首页
METAR-TAF:

METAR-TAF

机场 :

杜林機場

都灵, 意大利

纬度: 45-13N, 经度: 007-39E, 海拔: 301米

当前天气观测

该预报发布于38分钟前的21:20 UTC
风速4节,风向北转东北,在东转东北之间变化
温度 3°C
湿度 87%
气压 996 hPa
能见度10公里或以上
1500米以下无云,无积雨云

METAR: LIMF 122120Z 02004KT 350V060 CAVOK 03/01 Q0996

时间: 22:58 (21:58 UTC)

预报

该预报发布于4小时和58分钟前的17:00 UTC
预报有效从12日的 18点(UTC)到 13日的 18点(UTC)
风速5节,风向多变
能见度10公里或以上
1500米以下无云,无积雨云
短暂存在
从 13日的 04点(UTC)到 13日的 08点(UTC)
能見度: 3000
轻雾

TAF: LIMF 121700Z 1218/1318 VRB05KT CAVOK TEMPO 1304/1308 3000 BR

超过4000个机场的气象观测和天气预报(METAR&TAF报告)。

可查询的气象台以黄色和红色小点在地图上表示。

将鼠标移到小点上方,可查看气象台名称。

然后点击查看天气观测和预报。

如需切换地图:点击带黑十字的绿色按钮放大地图;点击带横线的绿色按钮缩小地图;或者点击绿色箭头查看邻近地区的地图。


METAR-TAF: